Time;durP1;ratioP1;P1;durP2;ratioP2;P2;SDS_P1;SDS_P2;PMS_P1;PMS_P2;Temp;Humidity;BMP_temperature;BMP_pressure;BME280_temperature;BME280_humidity;BME280_pressure;Samples;Min_cycle;Max_cycle;Signal;HPM_P1;HPM_P2
2023/04/03 00:01:33;;;;;;;6.57;1.55;;;2.50;99.90;;;;;;4949411;28;20421;-81
2023/04/03 00:03:59;;;;;;;7.07;1.30;;;2.50;99.90;;;;;;4967247;28;20031;-81
2023/04/03 00:06:26;;;;;;;10.23;1.73;;;2.50;99.90;;;;;;4968474;28;20550;-80
2023/04/03 00:08:52;;;;;;;7.45;1.48;;;2.50;99.90;;;;;;4968288;28;20092;-81
2023/04/03 00:11:17;;;;;;;4.57;1.77;;;2.40;99.90;;;;;;4951120;28;20031;-81
2023/04/03 00:13:44;;;;;;;7.97;1.58;;;2.40;99.90;;;;;;4968783;28;20039;-81
2023/04/03 00:16:11;;;;;;;6.03;1.75;;;2.40;99.90;;;;;;4987235;28;20030;-81
2023/04/03 00:18:37;;;;;;;5.32;1.65;;;2.40;99.90;;;;;;4968387;28;20033;-82
2023/04/03 00:21:03;;;;;;;7.45;1.77;;;2.40;99.90;;;;;;4978554;28;20058;-82
2023/04/03 00:23:29;;;;;;;9.95;1.48;;;2.40;99.90;;;;;;4968099;28;20027;-82
2023/04/03 00:25:55;;;;;;;7.25;1.40;;;2.40;99.90;;;;;;4973431;28;20085;-82
2023/04/03 00:28:21;;;;;;;5.10;1.55;;;2.40;99.90;;;;;;4975661;28;20053;-82
2023/04/03 00:30:48;;;;;;;3.25;1.38;;;2.40;99.90;;;;;;4982261;28;20026;-80
2023/04/03 00:33:14;;;;;;;10.30;1.65;;;2.40;99.90;;;;;;4976404;28;20026;-82
2023/04/03 00:35:40;;;;;;;10.40;1.77;;;2.40;99.90;;;;;;4967494;28;20109;-82
2023/04/03 00:38:06;;;;;;;8.93;1.80;;;2.40;99.90;;;;;;4968321;28;20446;-82
2023/04/03 00:40:38;;;;;;;9.23;2.00;;;2.50;99.90;;;;;;4962084;28;20035;-82
2023/04/03 00:43:16;;;;;;;4.40;1.25;;;2.50;99.90;;;;;;4939618;29;20786;-82
2023/04/03 00:45:45;;;;;;;5.05;1.50;;;2.60;99.90;;;;;;4954712;28;20031;-82
2023/04/03 00:48:24;;;;;;;4.70;1.20;;;2.70;99.90;;;;;;4966114;28;20080;-82
2023/04/03 00:50:51;;;;;;;7.53;1.60;;;2.80;99.90;;;;;;4966864;28;20026;-82
2023/04/03 00:53:22;;;;;;;10.02;1.65;;;2.90;99.90;;;;;;4965675;28;20384;-82
2023/04/03 00:55:49;;;;;;;5.03;1.73;;;3.00;99.90;;;;;;4969012;28;20039;-82
2023/04/03 00:58:18;;;;;;;10.38;1.77;;;3.10;99.90;;;;;;4953065;28;20126;-82
2023/04/03 01:00:49;;;;;;;7.13;1.70;;;3.10;99.90;;;;;;4973632;28;20047;-81
2023/04/03 01:03:15;;;;;;;6.55;1.70;;;3.10;99.90;;;;;;4980244;28;20033;-82
2023/04/03 01:05:41;;;;;;;8.75;1.52;;;3.10;99.90;;;;;;4954379;28;20023;-81
2023/04/03 01:08:06;;;;;;;5.18;1.55;;;3.00;99.90;;;;;;4983947;28;20158;-81
2023/04/03 01:10:32;;;;;;;6.65;1.70;;;2.90;99.90;;;;;;4987531;28;20770;-81
2023/04/03 01:13:00;;;;;;;5.47;1.77;;;2.90;99.90;;;;;;4973089;28;20062;-82
2023/04/03 01:15:30;;;;;;;4.32;1.55;;;2.80;99.90;;;;;;4990074;28;20114;-82
2023/04/03 01:17:57;;;;;;;9.20;1.90;;;2.80;99.90;;;;;;4990172;28;20694;-82
2023/04/03 01:20:31;;;;;;;11.25;1.40;;;2.60;99.90;;;;;;4989956;28;20846;-82
2023/04/03 01:23:09;;;;;;;3.67;2.20;;;2.60;99.90;;;;;;4990192;28;20073;-82
2023/04/03 01:25:55;;;;;;;5.68;1.67;;;2.50;99.90;;;;;;4988513;28;20053;-82
2023/04/03 01:28:21;;;;;;;5.93;1.88;;;2.40;99.90;;;;;;4972425;28;20482;-81
2023/04/03 01:31:05;;;;;;;5.15;1.70;;;2.40;99.90;;;;;;4975226;28;20058;-82
2023/04/03 01:33:31;;;;;;;8.52;1.88;;;2.30;99.90;;;;;;4973896;28;20031;-82
2023/04/03 01:35:57;;;;;;;7.40;2.00;;;2.20;99.90;;;;;;4970755;28;20043;-80
2023/04/03 01:38:23;;;;;;;8.07;1.40;;;2.20;99.90;;;;;;4984596;28;20045;-82
2023/04/03 01:40:49;;;;;;;5.50;1.70;;;2.10;99.90;;;;;;4988607;28;20117;-82
2023/04/03 01:43:14;;;;;;;5.80;1.70;;;2.10;99.90;;;;;;4990196;28;20030;-81
2023/04/03 01:45:40;;;;;;;7.72;1.92;;;2.00;99.90;;;;;;4989403;28;20566;-82
2023/04/03 01:48:06;;;;;;;9.00;2.05;;;2.00;99.90;;;;;;4979466;28;20026;-82
2023/04/03 01:50:31;;;;;;;13.05;2.53;;;1.90;99.90;;;;;;4994798;28;20096;-82
2023/04/03 01:52:57;;;;;;;6.88;2.05;;;1.90;99.90;;;;;;4974155;28;20063;-81
2023/04/03 01:55:22;;;;;;;10.88;2.42;;;1.90;99.90;;;;;;4977395;28;20058;-82
2023/04/03 01:57:48;;;;;;;8.63;1.67;;;1.90;99.90;;;;;;4980660;28;20045;-82
2023/04/03 02:00:14;;;;;;;5.68;1.70;;;1.90;99.90;;;;;;4974200;28;20125;-82
2023/04/03 02:02:39;;;;;;;7.50;1.80;;;1.90;99.90;;;;;;4989115;28;20026;-82
2023/04/03 02:05:06;;;;;;;6.45;2.00;;;1.90;99.90;;;;;;4988843;28;20034;-82
2023/04/03 02:07:31;;;;;;;11.70;1.55;;;1.90;99.90;;;;;;4970339;28;20023;-81
2023/04/03 02:09:57;;;;;;;4.18;1.63;;;1.90;99.90;;;;;;4964584;28;20042;-81
2023/04/03 02:12:22;;;;;;;3.05;1.30;;;1.90;99.90;;;;;;4993078;28;20030;-82
2023/04/03 02:14:48;;;;;;;4.90;1.67;;;1.80;99.90;;;;;;4999282;28;20049;-82
2023/04/03 02:17:14;;;;;;;7.63;1.75;;;1.80;99.90;;;;;;4965099;28;20053;-81
2023/04/03 02:19:39;;;;;;;9.25;1.75;;;1.80;99.90;;;;;;4989276;28;20030;-81
2023/04/03 02:22:05;;;;;;;3.47;1.35;;;1.80;99.90;;;;;;4988703;28;20498;-81
2023/04/03 02:24:31;;;;;;;6.90;2.10;;;1.80;99.90;;;;;;4991834;28;20022;-82
2023/04/03 02:26:57;;;;;;;7.80;1.50;;;1.80;99.90;;;;;;4988325;28;20438;-81
2023/04/03 02:29:23;;;;;;;8.27;1.60;;;1.70;99.90;;;;;;4980272;28;20018;-81
2023/04/03 02:31:49;;;;;;;9.95;1.73;;;1.70;99.90;;;;;;4987564;28;20183;-82
2023/04/03 02:34:14;;;;;;;4.68;1.20;;;1.70;99.90;;;;;;4988567;28;20038;-81
2023/04/03 02:36:40;;;;;;;6.15;1.35;;;1.70;99.90;;;;;;4985636;28;20023;-81
2023/04/03 02:39:06;;;;;;;5.85;1.50;;;1.70;99.90;;;;;;4969659;28;20102;-82
2023/04/03 02:41:37;;;;;;;3.65;1.42;;;1.70;99.90;;;;;;4974434;28;20032;-82
2023/04/03 02:44:04;;;;;;;4.85;1.33;;;1.70;99.90;;;;;;4986855;28;20057;-81
2023/04/03 02:46:30;;;;;;;8.90;1.70;;;1.70;99.90;;;;;;4979846;28;20081;-82
2023/04/03 02:48:55;;;;;;;5.65;1.55;;;1.70;99.90;;;;;;4989203;28;20066;-82
2023/04/03 02:51:22;;;;;;;7.15;1.55;;;1.70;99.90;;;;;;4986530;28;20069;-83
2023/04/03 02:53:48;;;;;;;7.22;1.40;;;1.70;99.90;;;;;;4989048;28;20033;-82
2023/04/03 02:56:14;;;;;;;4.65;1.45;;;1.60;99.90;;;;;;4978468;28;20402;-82
2023/04/03 02:58:40;;;;;;;7.72;1.50;;;1.60;99.90;;;;;;4969283;28;20026;-82
2023/04/03 03:01:05;;;;;;;7.22;1.80;;;1.60;99.90;;;;;;4974134;28;20026;-82
2023/04/03 03:03:31;;;;;;;6.80;1.60;;;1.60;99.90;;;;;;4983545;28;20111;-82
2023/04/03 03:06:08;;;;;;;7.40;1.70;;;1.60;99.90;;;;;;4969437;28;20057;-81
2023/04/03 03:08:34;;;;;;;7.93;1.50;;;1.60;99.90;;;;;;4969385;28;20311;-82
2023/04/03 03:11:00;;;;;;;6.40;1.67;;;1.60;99.90;;;;;;4970219;28;20029;-82
2023/04/03 03:13:26;;;;;;;8.82;1.52;;;1.70;99.90;;;;;;4982776;28;20034;-82
2023/04/03 03:15:51;;;;;;;3.55;1.10;;;1.60;99.90;;;;;;4986514;28;20212;-82
2023/04/03 03:18:17;;;;;;;3.60;1.10;;;1.60;99.90;;;;;;4988597;28;20022;-80
2023/04/03 03:20:43;;;;;;;11.13;1.70;;;1.60;99.90;;;;;;4982162;28;20035;-82
2023/04/03 03:23:08;;;;;;;4.68;1.50;;;1.60;99.90;;;;;;4974373;28;20069;-82
2023/04/03 03:25:38;;;;;;;6.45;1.42;;;1.60;99.90;;;;;;4988482;28;20121;-82
2023/04/03 03:28:04;;;;;;;4.90;1.85;;;1.60;99.90;;;;;;4988010;28;20533;-82
2023/04/03 03:30:30;;;;;;;5.72;1.60;;;1.60;99.90;;;;;;4969779;28;20030;-82
2023/04/03 03:32:55;;;;;;;3.83;1.55;;;1.60;99.90;;;;;;4988979;28;20030;-82
2023/04/03 03:35:22;;;;;;;8.15;1.55;;;1.60;99.90;;;;;;4987128;28;20892;-80
2023/04/03 03:37:47;;;;;;;5.75;1.52;;;1.60;99.90;;;;;;4982220;28;20106;-80
2023/04/03 03:40:13;;;;;;;3.33;1.38;;;1.60;99.90;;;;;;4968457;28;20087;-81
2023/04/03 03:42:39;;;;;;;6.65;1.70;;;1.50;99.90;;;;;;4978449;28;20026;-81
2023/04/03 03:45:05;;;;;;;6.78;1.55;;;1.50;99.90;;;;;;4977935;28;20038;-81
2023/04/03 03:47:31;;;;;;;6.63;1.60;;;1.50;99.90;;;;;;4980991;28;20034;-80
2023/04/03 03:49:56;;;;;;;7.90;1.30;;;1.40;99.90;;;;;;4982623;28;20030;-80
2023/04/03 03:52:22;;;;;;;6.55;1.60;;;1.40;99.90;;;;;;4981616;28;20042;-80
2023/04/03 03:54:48;;;;;;;7.45;1.70;;;1.30;99.90;;;;;;4983751;28;20096;-80
2023/04/03 03:57:14;;;;;;;6.57;1.75;;;1.30;99.90;;;;;;4979619;28;20370;-81
2023/04/03 03:59:41;;;;;;;3.63;1.60;;;1.30;99.90;;;;;;4980707;28;20042;-81
2023/04/03 04:02:07;;;;;;;6.25;1.48;;;1.20;99.90;;;;;;4994370;28;20034;-82
2023/04/03 04:04:33;;;;;;;7.95;1.95;;;1.30;99.90;;;;;;4989553;28;20489;-82
2023/04/03 04:07:00;;;;;;;9.30;2.63;;;1.30;99.90;;;;;;4988398;28;20034;-82
2023/04/03 04:09:26;;;;;;;7.43;2.45;;;1.30;99.90;;;;;;4985750;28;20038;-82
2023/04/03 04:11:52;;;;;;;5.63;2.55;;;1.40;99.90;;;;;;4975155;28;20157;-82
2023/04/03 04:14:17;;;;;;;7.18;2.67;;;1.40;99.90;;;;;;4987384;28;20117;-82
2023/04/03 04:16:43;;;;;;;3.83;2.28;;;1.50;99.90;;;;;;4969022;28;20039;-82
2023/04/03 04:19:09;;;;;;;7.40;2.33;;;1.50;99.90;;;;;;4977874;28;20031;-82
2023/04/03 04:21:35;;;;;;;6.05;1.77;;;1.50;99.90;;;;;;4986438;28;20050;-83
2023/04/03 04:24:00;;;;;;;6.82;1.50;;;1.60;99.90;;;;;;4987180;28;20136;-82
2023/04/03 04:26:26;;;;;;;19.05;2.35;;;1.50;99.90;;;;;;4973648;28;20474;-82
2023/04/03 04:28:52;;;;;;;8.25;1.75;;;1.50;99.90;;;;;;4990218;28;20034;-80
2023/04/03 04:31:17;;;;;;;5.43;2.25;;;1.40;99.90;;;;;;4991989;28;20101;-83
2023/04/03 04:33:43;;;;;;;6.68;1.80;;;1.40;99.90;;;;;;4990988;28;20063;-79
2023/04/03 04:36:08;;;;;;;9.50;1.80;;;1.30;99.90;;;;;;4991290;28;20070;-82
2023/04/03 04:38:34;;;;;;;2.78;1.40;;;1.30;99.90;;;;;;4991469;28;20049;-82
2023/04/03 04:41:00;;;;;;;10.70;1.63;;;1.20;99.90;;;;;;4975037;28;20031;-82
2023/04/03 04:43:26;;;;;;;6.05;1.33;;;1.20;99.90;;;;;;4973287;28;20037;-82
2023/04/03 04:46:04;;;;;;;7.90;1.50;;;1.20;99.90;;;;;;4973116;28;20034;-82
2023/04/03 04:48:30;;;;;;;6.20;1.80;;;1.10;99.90;;;;;;4982436;28;20027;-83
2023/04/03 04:50:56;;;;;;;5.32;1.70;;;1.10;99.90;;;;;;4984166;28;20035;-82
2023/04/03 04:53:21;;;;;;;5.05;1.73;;;1.10;99.90;;;;;;4991255;28;20114;-82
2023/04/03 04:55:47;;;;;;;3.80;1.98;;;1.10;99.90;;;;;;4981887;28;20054;-82
2023/04/03 04:58:13;;;;;;;6.45;2.90;;;1.10;99.90;;;;;;4984622;28;20097;-82
2023/04/03 05:00:39;;;;;;;11.18;2.75;;;1.10;99.90;;;;;;4990692;28;20407;-79
2023/04/03 05:03:04;;;;;;;7.38;2.92;;;1.20;99.90;;;;;;4989981;28;20034;-82
2023/04/03 05:05:30;;;;;;;9.68;2.50;;;1.20;99.90;;;;;;4989030;28;20045;-82
2023/04/03 05:07:55;;;;;;;9.25;3.30;;;1.30;99.90;;;;;;4989788;28;20086;-82
2023/04/03 05:10:21;;;;;;;6.05;2.92;;;1.30;99.90;;;;;;4991112;28;20030;-82
2023/04/03 05:12:47;;;;;;;7.32;2.90;;;1.30;99.90;;;;;;4989344;28;20090;-82
2023/04/03 05:15:12;;;;;;;8.02;2.50;;;1.40;99.90;;;;;;4989924;28;20118;-82
2023/04/03 05:17:38;;;;;;;7.68;2.60;;;1.50;99.90;;;;;;4984619;28;20030;-82
2023/04/03 05:20:04;;;;;;;11.00;2.72;;;1.60;99.90;;;;;;4987890;28;20033;-81
2023/04/03 05:22:30;;;;;;;10.10;2.22;;;1.60;99.90;;;;;;4979708;28;20037;-82
2023/04/03 05:24:56;;;;;;;9.98;2.40;;;1.70;99.90;;;;;;4977964;28;20034;-83
2023/04/03 05:27:23;;;;;;;7.72;2.90;;;1.80;99.90;;;;;;4984555;28;20033;-82
2023/04/03 05:29:49;;;;;;;8.77;2.80;;;1.90;99.90;;;;;;4990045;28;20034;-82
2023/04/03 05:32:15;;;;;;;9.13;2.70;;;2.00;99.90;;;;;;4990981;28;20375;-82
2023/04/03 05:34:40;;;;;;;8.98;3.30;;;2.00;99.90;;;;;;4989825;28;20042;-81
2023/04/03 05:37:06;;;;;;;6.88;3.25;;;2.00;99.90;;;;;;4972763;28;20125;-82
2023/04/03 05:39:31;;;;;;;11.13;3.33;;;2.10;99.90;;;;;;4988665;28;20045;-81
2023/04/03 05:41:57;;;;;;;10.93;4.30;;;2.20;99.90;;;;;;4989839;28;20125;-82
2023/04/03 05:44:23;;;;;;;17.02;5.65;;;2.40;99.90;;;;;;4970609;28;20026;-82
2023/04/03 05:46:48;;;;;;;14.88;5.60;;;2.50;99.90;;;;;;4990339;28;20521;-81
2023/04/03 05:49:14;;;;;;;12.68;5.18;;;2.60;99.90;;;;;;4990096;28;20033;-81
2023/04/03 05:51:40;;;;;;;7.93;5.20;;;2.70;99.90;;;;;;4989051;28;20394;-81
2023/04/03 05:54:18;;;;;;;13.55;6.35;;;2.70;99.90;;;;;;4990800;28;20030;-82
2023/04/03 05:56:43;;;;;;;6.93;4.60;;;2.80;99.90;;;;;;4989664;28;20034;-81
2023/04/03 05:59:09;;;;;;;12.90;5.35;;;2.80;99.90;;;;;;4976984;28;20454;-82
2023/04/03 06:01:35;;;;;;;11.55;4.82;;;3.00;99.90;;;;;;4985617;28;20030;-82
2023/04/03 06:04:01;;;;;;;14.82;5.60;;;3.10;99.90;;;;;;4980336;28;20085;-81
2023/04/03 06:06:42;;;;;;;12.57;4.60;;;3.20;99.90;;;;;;4987497;28;20034;-81
2023/04/03 06:09:08;;;;;;;11.57;4.28;;;3.20;99.90;;;;;;4986760;28;20039;-81
2023/04/03 06:11:33;;;;;;;7.90;4.47;;;3.30;99.90;;;;;;4975063;28;20031;-82
2023/04/03 06:13:59;;;;;;;8.15;4.70;;;3.30;99.90;;;;;;4988429;28;20045;-81
2023/04/03 06:16:24;;;;;;;9.05;4.13;;;3.40;99.90;;;;;;4988990;28;20044;-81
2023/04/03 06:18:50;;;;;;;11.07;4.07;;;3.60;99.90;;;;;;4988688;28;20026;-81
2023/04/03 06:21:15;;;;;;;7.60;3.75;;;3.70;99.90;;;;;;4987450;28;20035;-81
2023/04/03 06:23:41;;;;;;;12.60;4.03;;;3.80;99.90;;;;;;4975524;28;20482;-82
2023/04/03 06:26:07;;;;;;;13.43;4.45;;;4.00;99.90;;;;;;4988885;28;20030;-81
2023/04/03 06:28:32;;;;;;;10.80;4.03;;;4.00;99.90;;;;;;4983353;28;20485;-82
2023/04/03 06:30:58;;;;;;;8.02;3.13;;;4.20;99.90;;;;;;4982987;28;20033;-82
2023/04/03 06:33:24;;;;;;;9.95;3.50;;;4.30;99.90;;;;;;4969894;28;20022;-82
2023/04/03 06:35:50;;;;;;;9.80;3.85;;;4.50;99.90;;;;;;4976840;28;20086;-81
2023/04/03 06:38:16;;;;;;;8.23;3.80;;;4.60;99.90;;;;;;4988607;28;20019;-81
2023/04/03 06:40:41;;;;;;;8.18;3.83;;;4.60;99.90;;;;;;4984415;28;20037;-82
2023/04/03 06:43:07;;;;;;;9.75;3.83;;;4.70;99.90;;;;;;4974984;28;20031;-81
2023/04/03 06:45:32;;;;;;;9.77;3.15;;;5.00;99.90;;;;;;4976542;28;20737;-82
2023/04/03 06:47:58;;;;;;;7.57;3.13;;;5.30;99.90;;;;;;4980488;28;20035;-81
2023/04/03 06:50:24;;;;;;;7.90;2.80;;;5.50;99.90;;;;;;4979550;28;20101;-81
2023/04/03 06:52:50;;;;;;;7.30;3.20;;;5.70;99.90;;;;;;4977049;28;20023;-82
2023/04/03 06:55:15;;;;;;;7.25;3.40;;;5.80;99.90;;;;;;4979572;28;20045;-80
2023/04/03 06:57:41;;;;;;;50.25;21.98;;;5.90;99.90;;;;;;4987315;28;20034;-82
2023/04/03 07:00:08;;;;;;;11.68;5.00;;;6.00;99.90;;;;;;4980476;28;20941;-83
2023/04/03 07:02:34;;;;;;;12.05;3.55;;;6.20;99.90;;;;;;4980479;28;20034;-82
2023/04/03 07:05:01;;;;;;;10.25;3.60;;;6.50;99.90;;;;;;4980087;28;20161;-82
2023/04/03 07:07:26;;;;;;;10.40;3.20;;;6.80;99.90;;;;;;4976999;28;20050;-81
2023/04/03 07:09:52;;;;;;;10.85;2.80;;;7.60;99.90;;;;;;4979658;28;20042;-82
2023/04/03 07:12:18;;;;;;;5.53;2.20;;;8.00;99.90;;;;;;4985777;28;20073;-81
2023/04/03 07:14:43;;;;;;;13.50;2.17;;;8.10;99.90;;;;;;4980500;28;20023;-81
2023/04/03 07:17:09;;;;;;;8.60;3.70;;;8.20;99.90;;;;;;4988217;28;20446;-81
2023/04/03 07:19:35;;;;;;;9.60;2.33;;;8.30;99.90;;;;;;4987783;28;20023;-82
2023/04/03 07:22:00;;;;;;;5.18;2.22;;;8.40;99.90;;;;;;4985236;28;20509;-81
2023/04/03 07:24:26;;;;;;;13.88;2.80;;;8.60;99.90;;;;;;4985092;28;20080;-82
2023/04/03 07:26:52;;;;;;;9.50;2.53;;;8.70;99.90;;;;;;4977750;28;20027;-81
2023/04/03 07:29:21;;;;;;;7.72;2.60;;;9.00;99.90;;;;;;4968125;28;20031;-81
2023/04/03 07:31:47;;;;;;;9.13;2.90;;;9.60;99.90;;;;;;4969004;28;20649;-81
2023/04/03 07:34:12;;;;;;;5.43;2.60;;;10.00;98.80;;;;;;4986704;28;20050;-81
2023/04/03 07:36:38;;;;;;;5.75;2.30;;;10.50;96.20;;;;;;4982726;28;20054;-81
2023/04/03 07:39:03;;;;;;;7.60;2.17;;;10.50;92.30;;;;;;4958812;28;20031;-82
2023/04/03 07:41:30;;;;;;;4.03;1.75;;;11.10;91.90;;;;;;4967285;28;20023;-81
2023/04/03 07:43:56;;;;;;;9.52;2.40;;;11.50;91.10;;;;;;4969401;28;20442;-81
2023/04/03 07:46:22;;;;;;;7.07;2.05;;;11.90;87.30;;;;;;4987406;28;20109;-81
2023/04/03 07:48:48;;;;;;;8.90;1.77;;;12.50;78.60;;;;;;4982692;28;20636;-82
2023/04/03 07:51:14;;;;;;;10.85;1.85;;;13.40;75.30;;;;;;4987011;28;20113;-82
2023/04/03 07:53:40;;;;;;;7.90;2.22;;;14.50;65.10;;;;;;4988208;28;20030;-82
2023/04/03 07:56:06;;;;;;;6.45;1.80;;;15.40;56.60;;;;;;4984891;28;20478;-82
2023/04/03 07:58:32;;;;;;;8.02;1.73;;;16.40;52.80;;;;;;4987297;28;20089;-82
2023/04/03 08:00:58;;;;;;;8.35;2.25;;;16.90;50.70;;;;;;4987449;28;20136;-82
2023/04/03 08:03:24;;;;;;;7.55;1.85;;;18.80;47.70;;;;;;4986354;28;20115;-82
2023/04/03 08:05:50;;;;;;;6.93;2.10;;;20.80;42.40;;;;;;4983574;28;20030;-82
2023/04/03 08:08:19;;;;;;;5.45;1.70;;;22.20;39.20;;;;;;4968290;28;20656;-80
2023/04/03 08:10:52;;;;;;;7.60;2.15;;;24.20;36.10;;;;;;4979699;28;20502;-81
2023/04/03 08:13:17;;;;;;;9.45;2.03;;;25.00;34.10;;;;;;4979938;28;20049;-81
2023/04/03 08:15:43;;;;;;;5.60;1.95;;;25.90;32.80;;;;;;4979412;28;20042;-82
2023/04/03 08:18:10;;;;;;;8.98;2.50;;;27.00;31.60;;;;;;4973603;28;20049;-82
2023/04/03 08:20:37;;;;;;;11.30;2.35;;;28.00;30.90;;;;;;4978211;28;20030;-81
2023/04/03 08:23:02;;;;;;;8.23;2.65;;;28.70;29.60;;;;;;4976490;28;20030;-79
2023/04/03 08:25:29;;;;;;;9.80;2.63;;;29.60;27.90;;;;;;4982323;28;20089;-82
2023/04/03 08:27:55;;;;;;;5.97;1.60;;;30.40;27.10;;;;;;4984611;28;20042;-82
2023/04/03 08:30:20;;;;;;;7.72;2.03;;;29.80;26.70;;;;;;4976826;28;20045;-81
2023/04/03 08:32:46;;;;;;;6.20;1.88;;;29.90;27.00;;;;;;4976724;28;20030;-81
2023/04/03 08:35:11;;;;;;;7.00;2.00;;;29.40;26.60;;;;;;4986609;28;20073;-82
2023/04/03 08:37:38;;;;;;;4.85;2.55;;;28.80;27.80;;;;;;4987001;28;20506;-81
2023/04/03 08:40:08;;;;;;;6.10;2.13;;;27.10;26.80;;;;;;4984718;28;21393;-80
2023/04/03 08:42:40;;;;;;;7.57;2.47;;;25.70;28.30;;;;;;4980555;28;20022;-81
2023/04/03 08:45:15;;;;;;;6.68;2.50;;;25.00;29.80;;;;;;4975778;28;20041;-82
2023/04/03 08:47:53;;;;;;;8.38;2.72;;;25.00;29.70;;;;;;4985738;28;20129;-81
2023/04/03 08:50:23;;;;;;;7.07;2.10;;;26.10;29.70;;;;;;4984717;28;20050;-81
2023/04/03 08:52:53;;;;;;;7.47;2.55;;;25.20;29.00;;;;;;4968901;28;20218;-81
2023/04/03 08:55:26;;;;;;;6.30;2.42;;;24.00;30.50;;;;;;4985135;28;20133;-81
2023/04/03 08:58:07;;;;;;;6.85;3.13;;;23.10;34.40;;;;;;4970489;28;20603;-82
2023/04/03 09:00:44;;;;;;;7.22;2.80;;;21.70;32.70;;;;;;4974845;28;20140;-82
2023/04/03 09:03:14;;;;;;;6.72;3.28;;;19.40;37.00;;;;;;4972194;28;20027;-81
2023/04/03 09:05:46;;;;;;;9.00;3.63;;;18.60;40.20;;;;;;4979534;28;20073;-81
2023/04/03 09:08:29;;;;;;;7.25;3.78;;;17.70;40.90;;;;;;4964744;28;20030;-82
2023/04/03 09:11:15;;;;;;;7.18;3.60;;;16.20;43.40;;;;;;4978674;28;20027;-81
2023/04/03 09:14:09;;;;;;;6.47;4.15;;;15.70;45.80;;;;;;4979613;28;20530;-79
2023/04/03 09:16:52;;;;;;;8.18;3.80;;;15.80;44.70;;;;;;4968448;28;20043;-81
2023/04/03 09:19:24;;;;;;;7.35;4.00;;;15.90;45.40;;;;;;4974791;28;20034;-81
2023/04/03 09:21:50;;;;;;;7.10;3.90;;;15.90;45.50;;;;;;4982460;28;20045;-81
2023/04/03 09:24:17;;;;;;;6.47;3.72;;;16.70;44.90;;;;;;4972604;28;20022;-80
2023/04/03 09:26:53;;;;;;;6.80;3.58;;;15.80;43.30;;;;;;4975939;28;20054;-81
2023/04/03 09:29:21;;;;;;;7.60;4.57;;;17.60;44.10;;;;;;4972950;28;20450;-80
2023/04/03 09:31:56;;;;;;;6.57;4.18;;;16.30;42.30;;;;;;4979192;28;20053;-81
2023/04/03 09:34:41;;;;;;;9.05;4.00;;;15.20;45.40;;;;;;4969582;28;20064;-80
2023/04/03 09:37:08;;;;;;;9.82;4.43;;;16.20;48.10;;;;;;4979255;28;20506;-81
2023/04/03 09:39:50;;;;;;;8.32;3.95;;;17.80;41.10;;;;;;4975515;28;20018;-81
2023/04/03 09:42:24;;;;;;;7.45;3.90;;;18.10;39.40;;;;;;4964791;28;20554;-80
2023/04/03 09:45:01;;;;;;;8.40;3.75;;;17.00;40.90;;;;;;4976326;28;20062;-80
2023/04/03 09:47:33;;;;;;;4.57;3.30;;;15.80;44.20;;;;;;4973842;28;20018;-81
2023/04/03 09:50:14;;;;;;;9.00;3.90;;;14.80;46.80;;;;;;4972023;28;20454;-78
2023/04/03 09:52:45;;;;;;;7.97;3.58;;;15.30;47.40;;;;;;4976786;28;20378;-81
2023/04/03 09:55:17;;;;;;;6.15;3.20;;;15.20;44.90;;;;;;4975539;28;20046;-81
2023/04/03 09:57:45;;;;;;;6.13;3.28;;;14.90;46.60;;;;;;4978376;28;20376;-80
2023/04/03 10:00:34;;;;;;;7.95;3.47;;;14.10;48.10;;;;;;4980337;28;20149;-82
2023/04/03 10:03:00;;;;;;;8.30;3.70;;;13.70;51.10;;;;;;4977490;28;20967;-81
2023/04/03 10:05:38;;;;;;;7.32;3.38;;;14.00;55.00;;;;;;4979954;28;20113;-82
2023/04/03 10:08:26;;;;;;;9.20;3.33;;;15.10;50.10;;;;;;4980427;28;20026;-81
2023/04/03 10:11:19;;;;;;;8.65;4.05;;;15.80;45.10;;;;;;4986175;28;20022;-82
2023/04/03 10:13:53;;;;;;;5.95;3.33;;;15.30;46.30;;;;;;4979170;28;20057;-82
2023/04/03 10:16:24;;;;;;;7.55;3.53;;;14.50;47.30;;;;;;4982164;28;20037;-83
2023/04/03 10:19:13;;;;;;;;;;;14.00;51.90;;;;;;4962274;28;20031;-81
2023/04/03 10:22:00;;;;;;;6.78;3.78;;;13.50;51.80;;;;;;4967211;28;20498;-82
2023/04/03 10:24:53;;;;;;;7.43;3.92;;;12.80;55.20;;;;;;4982858;28;20037;-81
2023/04/03 10:27:40;;;;;;;8.13;4.85;;;12.30;59.70;;;;;;4968842;28;20041;-81
2023/04/03 10:30:17;;;;;;;6.10;4.03;;;12.20;62.20;;;;;;4989141;28;20101;-82
2023/04/03 10:32:52;;;;;;;6.93;4.18;;;12.00;64.00;;;;;;4984990;28;20061;-81
2023/04/03 10:35:32;;;;;;;6.90;3.95;;;12.70;60.30;;;;;;4987732;28;20054;-81
2023/04/03 10:38:12;;;;;;;7.90;3.80;;;15.40;51.40;;;;;;4968481;28;20411;-81
2023/04/03 10:40:37;;;;;;;4.60;3.40;;;18.80;41.30;;;;;;4983885;28;20049;-81
2023/04/03 10:43:29;;;;;;;7.50;3.05;;;21.30;35.80;;;;;;4974833;28;20026;-82
2023/04/03 10:46:10;;;;;;;;;;;21.00;33.30;;;;;;4970279;28;20054;-82
2023/04/03 10:49:01;;;;;;;4.47;2.50;;;19.30;36.50;;;;;;4976761;28;19917;-81
2023/04/03 10:51:48;;;;;;;4.07;2.17;;;19.70;36.80;;;;;;4962333;28;20097;-82
2023/04/03 10:54:23;;;;;;;5.30;2.65;;;21.30;33.50;;;;;;4976164;28;20058;-82
2023/04/03 10:57:15;;;;;;;5.15;2.33;;;21.50;32.60;;;;;;4972002;28;20046;-81
2023/04/03 10:59:45;;;;;;;3.58;2.13;;;21.20;30.00;;;;;;4976291;28;20053;-82
2023/04/03 11:02:32;;;;;;;3.33;1.90;;;22.00;30.80;;;;;;4982996;28;20034;-81
2023/04/03 11:05:13;;;;;;;4.20;2.00;;;24.10;30.00;;;;;;4973463;28;20026;-81
2023/04/03 11:07:45;;;;;;;4.68;2.28;;;24.50;26.20;;;;;;4986580;28;20053;-80
2023/04/03 11:10:24;;;;;;;4.25;1.90;;;24.50;28.90;;;;;;4977081;28;20046;-81
2023/04/03 11:12:58;;;;;;;3.45;1.60;;;24.60;28.00;;;;;;4980186;28;20030;-81
2023/04/03 11:15:25;;;;;;;3.03;1.25;;;24.20;28.00;;;;;;4968228;28;20491;-81
2023/04/03 11:18:06;;;;;;;4.38;1.73;;;24.50;27.10;;;;;;4980240;28;20379;-80
2023/04/03 11:20:33;;;;;;;4.88;1.88;;;22.70;26.90;;;;;;4977399;28;20391;-81
2023/04/03 11:23:30;;;;;;;4.10;1.63;;;22.20;28.30;;;;;;4980051;28;20736;-81
2023/04/03 11:26:25;;;;;;;3.83;1.52;;;21.80;30.60;;;;;;4966099;28;20046;-81
2023/04/03 11:29:01;;;;;;;3.70;1.50;;;22.30;30.60;;;;;;4977360;28;20038;-80
2023/04/03 11:31:45;;;;;;;3.28;1.65;;;22.80;28.80;;;;;;4980463;28;20744;-81
2023/04/03 11:34:31;;;;;;;4.95;1.77;;;21.40;28.90;;;;;;4990353;28;20026;-79
2023/04/03 11:37:00;;;;;;;4.57;1.73;;;20.10;31.20;;;;;;4974798;28;20058;-79
2023/04/03 11:39:38;;;;;;;5.18;1.90;;;17.70;35.60;;;;;;4989102;28;20050;-80
2023/04/03 11:42:28;;;;;;;2.65;1.50;;;16.70;39.30;;;;;;4991875;28;20018;-81
2023/04/03 11:45:23;;;;;;;4.30;1.80;;;16.90;41.40;;;;;;4975149;28;20034;-79
2023/04/03 11:47:54;;;;;;;4.80;1.70;;;16.30;39.50;;;;;;4992149;28;20041;-81
2023/04/03 11:50:47;;;;;;;3.97;1.50;;;16.30;40.80;;;;;;4981417;28;20030;-81
2023/04/03 11:53:12;;;;;;;6.90;1.92;;;17.10;39.00;;;;;;4969019;28;20073;-79
2023/04/03 11:55:49;;;;;;;5.60;2.00;;;17.00;37.10;;;;;;4980418;28;21863;-81
2023/04/03 11:58:23;;;;;;;3.65;1.60;;;16.00;39.70;;;;;;4987495;28;20101;-80
2023/04/03 12:00:54;;;;;;;4.57;1.70;;;15.90;40.90;;;;;;4992202;28;20073;-81
2023/04/03 12:03:26;;;;;;;3.38;1.48;;;16.00;41.50;;;;;;4973897;28;20434;-80
2023/04/03 12:06:13;;;;;;;3.75;1.75;;;15.50;40.40;;;;;;4990909;28;20064;-81
2023/04/03 12:08:39;;;;;;;3.83;1.42;;;16.00;40.30;;;;;;4939321;28;20117;-80
2023/04/03 12:11:13;;;;;;;2.38;1.50;;;16.60;39.70;;;;;;4975005;28;20102;-80
2023/04/03 12:13:42;;;;;;;2.92;1.30;;;16.50;38.90;;;;;;4983833;28;20027;-81
2023/04/03 12:16:32;;;;;;;5.18;1.40;;;16.80;40.80;;;;;;4979794;28;20089;-79
2023/04/03 12:19:22;;;;;;;4.00;1.60;;;16.50;38.60;;;;;;4975324;28;20393;-81
2023/04/03 12:21:48;;;;;;;2.80;1.00;;;15.50;40.90;;;;;;4968067;28;20046;-79
2023/04/03 12:24:16;;;;;;;2.55;1.20;;;15.10;38.90;;;;;;4982566;28;20316;-79
2023/04/03 12:26:56;;;;;;;3.95;1.10;;;14.80;40.10;;;;;;4984369;28;20101;-79
2023/04/03 12:29:34;;;;;;;4.10;1.40;;;14.60;39.90;;;;;;4982847;28;20023;-80
2023/04/03 12:32:21;;;;;;;2.95;1.10;;;14.50;43.10;;;;;;4976745;28;20093;-80
2023/04/03 12:35:11;;;;;;;4.55;1.77;;;14.70;47.30;;;;;;4980762;28;20884;-81
2023/04/03 12:37:49;;;;;;;3.10;1.55;;;15.00;44.40;;;;;;4620368;28;9999995;-80
2023/04/03 12:40:26;;;;;;;3.95;1.40;;;15.40;43.70;;;;;;4962146;28;20564;-80
2023/04/03 12:43:05;;;;;;;3.00;1.38;;;15.60;43.30;;;;;;4984109;28;20109;-80
2023/04/03 12:46:03;;;;;;;3.30;1.40;;;16.00;43.10;;;;;;4982331;28;20033;-81
2023/04/03 12:48:31;;;;;;;3.53;1.50;;;15.50;40.60;;;;;;4943803;28;20503;-81
2023/04/03 12:50:59;;;;;;;3.75;1.20;;;15.40;40.90;;;;;;4990372;28;20041;-80
2023/04/03 12:53:26;;;;;;;3.00;1.38;;;15.70;42.70;;;;;;4988725;28;20030;-79
2023/04/03 12:55:56;;;;;;;4.35;1.33;;;15.80;43.30;;;;;;4987609;28;20042;-80
2023/04/03 12:58:24;;;;;;;2.67;1.42;;;15.30;42.00;;;;;;4979009;28;20033;-80
2023/04/03 13:01:11;;;;;;;3.60;1.80;;;15.60;43.20;;;;;;4980597;28;20039;-80
2023/04/03 13:03:42;;;;;;;4.35;1.50;;;15.80;43.30;;;;;;4965974;28;20037;-81
2023/04/03 13:06:17;;;;;;;6.32;2.55;;;16.10;42.80;;;;;;4979739;28;20097;-79
2023/04/03 13:08:56;;;;;;;3.33;1.30;;;16.20;40.90;;;;;;4977995;28;20620;-80